Nearby METAR Reports

 

KBFI - Seattle/Boeing, Washington, USA
Distance from station: S 10mi, 16km
Updated: Fri, 21-Sep-2018 9:53am PDT
Overcast
Overcast
 Wind from SE
Wind: SE 9 mph , 15 km/h
Temperature: 64°F , 18°C
Dew Point: 50°F , 10°C
Humidity: 60%
Barometer: 29.98 inHg , 1015.2 hPa
Clouds: Overcast
Visibility: 10 miles , 16 km
Cloud details: Overcast 5500 ft
2018/09/21 16:53 KBFI 211653Z 14008KT 10SM OVC055 18/10 A2998 RMK AO2 SLP150 T01780100
KRNT - Renton, Washington, USA
Distance from station: SSE 14mi, 23km
Updated: Fri, 21-Sep-2018 9:53am PDT
Overcast
Overcast
 Wind from SSE
Wind: SSE 6 mph , 9 km/h
Temperature: 64°F , 18°C
Dew Point: 52°F , 11°C
Humidity: 64%
Barometer: 29.97 inHg , 1014.9 hPa
Clouds: Overcast
Visibility: 10 miles , 16 km
Cloud details: Overcast 5500 ft
2018/09/21 16:53 KRNT 211653Z 15005KT 10SM OVC055 18/11 A2997 RMK AO2 SLP155 T01830111
 
KPAE - Everett, Washington, USA
Distance from station: N 15mi, 25km
Updated: Fri, 21-Sep-2018 9:53am PDT
Mostly cloudy
Mostly cloudy
 Wind from ESE
Wind: ESE 15 mph , 24 km/h, Gust: 20 mph , 31 km/h
Temperature: 63°F , 17°C
Dew Point: 50°F , 10°C
Humidity: 64%
Barometer: 29.98 inHg , 1015.2 hPa
Clouds: Mostly cloudy
Visibility: 10 miles , 16 km
Cloud details: Mostly cloudy 2200 ft
2018/09/21 16:53 KPAE 211653Z 12013G17KT 10SM BKN022 17/10 A2998 RMK AO2 SLP151 T01670100
KSEA - Seattle/Metro, Washington, USA
Distance from station: S 17mi, 27km
Updated: Fri, 21-Sep-2018 9:53am PDT
Mostly cloudy
Mostly cloudy
 Wind from SE
Wind: SE 8 mph , 13 km/h
Temperature: 64°F , 18°C
Dew Point: 50°F , 10°C
Humidity: 60%
Barometer: 29.99 inHg , 1015.6 hPa
Clouds: Mostly cloudy
Visibility: 10 miles , 16 km
Cloud details: Few Clouds 2000 ft
Partly cloudy 2800 ft
Mostly cloudy 5000 ft
Mostly cloudy 25000 ft
2018/09/21 16:53 KSEA 211653Z 14007KT 10SM FEW020 SCT028 BKN050 BKN250 18/10 A2999 RMK AO2 SLP160 T01780100
 
KPWT - Bremerton Ntnl, Washington, USA
Distance from station: SW 24mi, 39km
Updated: Fri, 21-Sep-2018 9:56am PDT
Mostly cloudy
Mostly cloudy
 Wind from varies
Wind: varies 7 mph , 11 km/h
Temperature: 61°F , 16°C
Dew Point: 52°F , 11°C
Humidity: 72%
Barometer: 29.98 inHg , 1015.2 hPa
Clouds: Mostly cloudy
Visibility: 10 miles , 16 km
Cloud details: Mostly cloudy 1200 ft
2018/09/21 16:56 KPWT 211656Z AUTO VRB06KT 10SM BKN012 16/11 A2998 RMK AO2 SLP169 T01560111
KTIW - Tacoma, Washington, USA
Distance from station: SSW 32mi, 52km
Updated: Fri, 21-Sep-2018 9:53am PDT
Overcast
Overcast
 Wind from S
Wind: S 5 mph , 7 km/h
Temperature: 59°F , 15°C
Dew Point: 48°F , 9°C
Humidity: 68%
Barometer: 29.99 inHg , 1015.6 hPa
Clouds: Overcast
Visibility: 10 miles , 16 km
Cloud details: Overcast 4900 ft
2018/09/21 16:53 KTIW 211653Z 19004KT 10SM OVC049 15/09 A2999 RMK AO2 SLP153 T01500094
 
KAWO - Arlington Muni, Washington, USA
Distance from station: N 33mi, 54km
Updated: Fri, 21-Sep-2018 9:56am PDT
Overcast
Overcast
 Wind from SE
Wind: SE 9 mph , 15 km/h
Temperature: 64°F , 18°C
Dew Point: 52°F , 11°C
Humidity: 64%
Barometer: 29.97 inHg , 1014.9 hPa
Clouds: Overcast
Visibility: 10 miles , 16 km
Cloud details: Overcast 3200 ft
2018/09/21 16:56 KAWO 211656Z AUTO 14008KT 10SM OVC032 18/11 A2997 RMK AO2 SLP152 T01780111
KTCM - Tacoma/Mc Chord, Washington, USA
Distance from station: S 41mi, 65km
Updated: Fri, 21-Sep-2018 9:56am PDT
Overcast
Overcast
 Wind from calm
Wind: Calm
Temperature: 61°F , 16°C
Dew Point: 54°F , 12°C
Humidity: 77%
Barometer: 29.99 inHg , 1015.6 hPa
Clouds: Overcast
Visibility: 10 miles , 16 km
Cloud details: Overcast 4500 ft
2018/09/21 16:56 KTCM 211656Z AUTO 00000KT 10SM OVC045 16/12 A2999 RMK AO2 SLPNO T01580123 $
 
KPLU - Puyallup/Thun, Washington, USA
Distance from station: S 41mi, 66km
Updated: Fri, 21-Sep-2018 9:55am PDT
Few Clouds
Few Clouds
 Wind from calm
Wind: Calm
Temperature: 66°F , 19°C
Dew Point: 52°F , 11°C
Humidity: 60%
Barometer: 29.99 inHg , 1015.6 hPa
Clouds: Few Clouds
Visibility: 10 miles , 16 km
Cloud details: Few Clouds 5000 ft
2018/09/21 16:55 KPLU 211655Z AUTO 00000KT 10SM FEW050 19/11 A2999 RMK AO2
KGRF - Fort Lewis/Gray, Washington, USA
Distance from station: SSW 45mi, 72km
Updated: Mon, 17-Sep-2018 6:30am PDT
NOT Current
Mist, Overcast
Mist, Overcast
 Wind from SSE
Wind: SSE 3 mph , 6 km/h
Temperature: 46°F , 8°C
Dew Point: 46°F , 8°C
Humidity: 100%
Barometer: 30.12 inHg , 1020 hPa
Summary: Mist
Clouds: Overcast
Visibility: 2 miles , 3 km
Cloud details: Overcast 200 ft
2018/09/17 13:30 KGRF 171330Z 15003KT 2SM BR OVC002 08/08 A3012 RMK SLP204 $
 
KNUW - Whidbey Is. Nas, Washington, USA
Distance from station: NNW 48mi, 77km
Updated: Fri, 21-Sep-2018 10:03am PDT
Overcast
Overcast
 Wind from SE
Wind: SE 9 mph , 15 km/h, Gust: 18 mph , 30 km/h
Temperature: 64°F , 18°C
Dew Point: 52°F , 11°C
Humidity: 64%
Barometer: 29.99 inHg , 1015.6 hPa
Clouds: Overcast
Visibility: 10 miles , 16 km
Cloud details: Mostly cloudy 2500 ft
Mostly cloudy 4100 ft
Mostly cloudy 7000 ft
Overcast 15000 ft
2018/09/21 17:03 KNUW 211703Z 13008G16KT 10SM BKN025 BKN041 BKN070 OVC150 18/11 A2999 RMK AO2 T01830106 $
KSHN - Shelton, Washington, USA
Distance from station: SW 50mi, 80km
Updated: Fri, 21-Sep-2018 9:53am PDT
Clear
Clear
 Wind from SW
Wind: SW 8 mph , 13 km/h
Temperature: 63°F , 17°C
Dew Point: 54°F , 12°C
Humidity: 73%
Barometer: 29.96 inHg , 1014.6 hPa
Clouds: Clear
Visibility: 10 miles , 16 km
2018/09/21 16:53 KSHN 211653Z AUTO 23007KT 10SM CLR 17/12 A2996 RMK AO2 SLP147 T01670117